sensor_id;sensor_type;location;lat;lon;timestamp;P1;durP1;ratioP1;P2;durP2;ratioP2
8656;SDS011;4366;50.764;7.184;2023-02-28T00:02:06;4.80;;;4.47;;
8656;SDS011;4366;50.764;7.184;2023-02-28T00:07:08;4.67;;;4.37;;
8656;SDS011;4366;50.764;7.184;2023-02-28T00:12:10;4.43;;;4.07;;
8656;SDS011;4366;50.764;7.184;2023-02-28T00:17:12;5.03;;;4.60;;
8656;SDS011;4366;50.764;7.184;2023-02-28T00:22:14;4.60;;;4.30;;
8656;SDS011;4366;50.764;7.184;2023-02-28T00:27:17;4.50;;;4.10;;
8656;SDS011;4366;50.764;7.184;2023-02-28T00:32:20;5.13;;;4.60;;
8656;SDS011;4366;50.764;7.184;2023-02-28T00:37:21;4.90;;;4.40;;
8656;SDS011;4366;50.764;7.184;2023-02-28T00:42:23;4.30;;;4.00;;
8656;SDS011;4366;50.764;7.184;2023-02-28T00:47:25;4.37;;;4.07;;
8656;SDS011;4366;50.764;7.184;2023-02-28T00:52:27;4.30;;;4.00;;
8656;SDS011;4366;50.764;7.184;2023-02-28T00:57:29;4.43;;;3.97;;
8656;SDS011;4366;50.764;7.184;2023-02-28T01:02:30;3.97;;;3.67;;
8656;SDS011;4366;50.764;7.184;2023-02-28T01:07:32;4.00;;;3.70;;
8656;SDS011;4366;50.764;7.184;2023-02-28T01:12:34;5.00;;;4.50;;
8656;SDS011;4366;50.764;7.184;2023-02-28T01:17:35;4.40;;;4.00;;
8656;SDS011;4366;50.764;7.184;2023-02-28T01:22:38;4.13;;;3.83;;
8656;SDS011;4366;50.764;7.184;2023-02-28T01:27:41;4.07;;;3.87;;
8656;SDS011;4366;50.764;7.184;2023-02-28T01:32:43;4.40;;;3.93;;
8656;SDS011;4366;50.764;7.184;2023-02-28T01:37:44;4.20;;;3.90;;
8656;SDS011;4366;50.764;7.184;2023-02-28T01:42:46;3.77;;;3.57;;
8656;SDS011;4366;50.764;7.184;2023-02-28T01:47:48;4.43;;;4.07;;
8656;SDS011;4366;50.764;7.184;2023-02-28T01:52:53;4.50;;;4.10;;
8656;SDS011;4366;50.764;7.184;2023-02-28T01:57:58;4.50;;;4.10;;
8656;SDS011;4366;50.764;7.184;2023-02-28T02:03:06;4.40;;;4.10;;
8656;SDS011;4366;50.764;7.184;2023-02-28T02:08:11;4.37;;;4.03;;
8656;SDS011;4366;50.764;7.184;2023-02-28T02:18:43;4.03;;;3.77;;
8656;SDS011;4366;50.764;7.184;2023-02-28T02:24:03;4.53;;;4.17;;
8656;SDS011;4366;50.764;7.184;2023-02-28T02:35:29;4.47;;;4.17;;
8656;SDS011;4366;50.764;7.184;2023-02-28T02:45:29;3.83;;;3.63;;
8656;SDS011;4366;50.764;7.184;2023-02-28T02:50:39;4.33;;;4.03;;
8656;SDS011;4366;50.764;7.184;2023-02-28T02:55:46;4.70;;;4.40;;
8656;SDS011;4366;50.764;7.184;2023-02-28T03:00:53;4.77;;;4.47;;
8656;SDS011;4366;50.764;7.184;2023-02-28T03:05:58;4.33;;;4.03;;
8656;SDS011;4366;50.764;7.184;2023-02-28T03:11:02;5.00;;;3.63;;
8656;SDS011;4366;50.764;7.184;2023-02-28T03:16:16;4.60;;;4.17;;
8656;SDS011;4366;50.764;7.184;2023-02-28T03:21:26;4.60;;;4.30;;
8656;SDS011;4366;50.764;7.184;2023-02-28T03:26:30;4.23;;;4.03;;
8656;SDS011;4366;50.764;7.184;2023-02-28T03:31:35;4.50;;;4.20;;
8656;SDS011;4366;50.764;7.184;2023-02-28T03:36:41;4.70;;;4.40;;
8656;SDS011;4366;50.764;7.184;2023-02-28T03:41:48;4.50;;;4.23;;
8656;SDS011;4366;50.764;7.184;2023-02-28T03:46:55;5.27;;;4.40;;
8656;SDS011;4366;50.764;7.184;2023-02-28T03:52:00;4.80;;;4.50;;
8656;SDS011;4366;50.764;7.184;2023-02-28T03:57:23;4.20;;;4.00;;
8656;SDS011;4366;50.764;7.184;2023-02-28T04:02:29;4.80;;;4.57;;
8656;SDS011;4366;50.764;7.184;2023-02-28T04:07:31;4.40;;;4.10;;
8656;SDS011;4366;50.764;7.184;2023-02-28T04:12:32;4.67;;;4.33;;
8656;SDS011;4366;50.764;7.184;2023-02-28T04:17:34;5.03;;;4.37;;
8656;SDS011;4366;50.764;7.184;2023-02-28T04:22:36;5.10;;;4.53;;
8656;SDS011;4366;50.764;7.184;2023-02-28T04:27:38;4.50;;;4.20;;
8656;SDS011;4366;50.764;7.184;2023-02-28T04:32:40;4.33;;;4.10;;
8656;SDS011;4366;50.764;7.184;2023-02-28T04:37:41;4.37;;;4.17;;
8656;SDS011;4366;50.764;7.184;2023-02-28T04:42:43;4.47;;;4.17;;
8656;SDS011;4366;50.764;7.184;2023-02-28T04:47:44;4.70;;;4.40;;
8656;SDS011;4366;50.764;7.184;2023-02-28T04:52:46;4.27;;;3.97;;
8656;SDS011;4366;50.764;7.184;2023-02-28T04:57:48;4.80;;;4.50;;
8656;SDS011;4366;50.764;7.184;2023-02-28T05:02:49;4.67;;;4.13;;
8656;SDS011;4366;50.764;7.184;2023-02-28T05:07:51;4.27;;;3.97;;
8656;SDS011;4366;50.764;7.184;2023-02-28T05:12:54;4.50;;;4.10;;
8656;SDS011;4366;50.764;7.184;2023-02-28T05:17:56;4.33;;;4.03;;
8656;SDS011;4366;50.764;7.184;2023-02-28T05:22:57;4.73;;;4.40;;
8656;SDS011;4366;50.764;7.184;2023-02-28T05:28:00;4.33;;;4.03;;
8656;SDS011;4366;50.764;7.184;2023-02-28T05:33:01;3.80;;;3.60;;
8656;SDS011;4366;50.764;7.184;2023-02-28T05:38:03;4.50;;;4.10;;
8656;SDS011;4366;50.764;7.184;2023-02-28T05:43:05;4.17;;;3.87;;
8656;SDS011;4366;50.764;7.184;2023-02-28T05:48:07;4.67;;;4.37;;
8656;SDS011;4366;50.764;7.184;2023-02-28T05:53:09;4.33;;;4.00;;
8656;SDS011;4366;50.764;7.184;2023-02-28T05:58:10;4.77;;;4.43;;
8656;SDS011;4366;50.764;7.184;2023-02-28T06:03:12;4.57;;;4.23;;
8656;SDS011;4366;50.764;7.184;2023-02-28T06:08:13;5.05;;;4.55;;
8656;SDS011;4366;50.764;7.184;2023-02-28T06:13:15;4.80;;;4.50;;
8656;SDS011;4366;50.764;7.184;2023-02-28T06:18:17;4.90;;;4.50;;
8656;SDS011;4366;50.764;7.184;2023-02-28T06:23:18;5.30;;;4.80;;
8656;SDS011;4366;50.764;7.184;2023-02-28T06:28:20;5.33;;;4.80;;
8656;SDS011;4366;50.764;7.184;2023-02-28T06:33:22;5.13;;;4.73;;
8656;SDS011;4366;50.764;7.184;2023-02-28T06:38:24;5.53;;;5.13;;
8656;SDS011;4366;50.764;7.184;2023-02-28T06:43:27;5.17;;;4.77;;
8656;SDS011;4366;50.764;7.184;2023-02-28T06:48:31;5.17;;;4.77;;
8656;SDS011;4366;50.764;7.184;2023-02-28T06:53:36;4.50;;;4.23;;
8656;SDS011;4366;50.764;7.184;2023-02-28T06:59:18;5.20;;;4.80;;
8656;SDS011;4366;50.764;7.184;2023-02-28T07:04:19;4.90;;;4.60;;
8656;SDS011;4366;50.764;7.184;2023-02-28T07:09:21;4.77;;;4.37;;
8656;SDS011;4366;50.764;7.184;2023-02-28T07:14:23;4.63;;;4.23;;
8656;SDS011;4366;50.764;7.184;2023-02-28T07:19:24;4.50;;;4.10;;
8656;SDS011;4366;50.764;7.184;2023-02-28T07:24:26;4.30;;;4.00;;
8656;SDS011;4366;50.764;7.184;2023-02-28T07:29:29;3.87;;;3.60;;
8656;SDS011;4366;50.764;7.184;2023-02-28T07:34:31;4.63;;;3.50;;
8656;SDS011;4366;50.764;7.184;2023-02-28T07:39:32;5.83;;;3.53;;
8656;SDS011;4366;50.764;7.184;2023-02-28T07:44:34;4.73;;;3.17;;
8656;SDS011;4366;50.764;7.184;2023-02-28T07:49:36;4.67;;;3.57;;
8656;SDS011;4366;50.764;7.184;2023-02-28T07:54:38;3.77;;;3.20;;
8656;SDS011;4366;50.764;7.184;2023-02-28T07:59:40;4.67;;;4.00;;
8656;SDS011;4366;50.764;7.184;2023-02-28T08:04:41;3.70;;;3.40;;
8656;SDS011;4366;50.764;7.184;2023-02-28T08:09:43;4.53;;;2.97;;
8656;SDS011;4366;50.764;7.184;2023-02-28T08:14:45;6.77;;;3.00;;
8656;SDS011;4366;50.764;7.184;2023-02-28T08:19:47;5.47;;;3.13;;
8656;SDS011;4366;50.764;7.184;2023-02-28T08:24:49;2.90;;;2.70;;
8656;SDS011;4366;50.764;7.184;2023-02-28T08:29:50;7.70;;;3.03;;
8656;SDS011;4366;50.764;7.184;2023-02-28T08:34:52;4.17;;;2.80;;
8656;SDS011;4366;50.764;7.184;2023-02-28T08:39:54;3.23;;;2.50;;
8656;SDS011;4366;50.764;7.184;2023-02-28T08:44:56;2.70;;;2.50;;
8656;SDS011;4366;50.764;7.184;2023-02-28T08:49:58;2.60;;;2.50;;
8656;SDS011;4366;50.764;7.184;2023-02-28T08:55:00;2.20;;;2.00;;
8656;SDS011;4366;50.764;7.184;2023-02-28T09:00:02;2.37;;;2.20;;
8656;SDS011;4366;50.764;7.184;2023-02-28T09:05:05;2.23;;;2.00;;
8656;SDS011;4366;50.764;7.184;2023-02-28T09:10:08;2.00;;;1.90;;
8656;SDS011;4366;50.764;7.184;2023-02-28T09:15:10;2.53;;;2.03;;
8656;SDS011;4366;50.764;7.184;2023-02-28T09:20:12;2.20;;;2.00;;
8656;SDS011;4366;50.764;7.184;2023-02-28T09:25:13;1.90;;;1.80;;
8656;SDS011;4366;50.764;7.184;2023-02-28T09:30:16;2.63;;;2.10;;
8656;SDS011;4366;50.764;7.184;2023-02-28T09:35:18;2.33;;;2.23;;
8656;SDS011;4366;50.764;7.184;2023-02-28T09:40:20;2.30;;;2.20;;
8656;SDS011;4366;50.764;7.184;2023-02-28T09:50:44;2.60;;;2.23;;
8656;SDS011;4366;50.764;7.184;2023-02-28T09:55:50;2.13;;;1.90;;
8656;SDS011;4366;50.764;7.184;2023-02-28T10:01:05;1.90;;;1.80;;
8656;SDS011;4366;50.764;7.184;2023-02-28T10:06:20;2.23;;;2.10;;
8656;SDS011;4366;50.764;7.184;2023-02-28T10:11:23;2.17;;;2.07;;
8656;SDS011;4366;50.764;7.184;2023-02-28T10:16:27;2.10;;;2.00;;
8656;SDS011;4366;50.764;7.184;2023-02-28T10:21:37;1.90;;;1.80;;
8656;SDS011;4366;50.764;7.184;2023-02-28T10:26:43;2.07;;;1.90;;
8656;SDS011;4366;50.764;7.184;2023-02-28T10:31:46;2.27;;;2.17;;
8656;SDS011;4366;50.764;7.184;2023-02-28T10:36:48;2.10;;;2.00;;
8656;SDS011;4366;50.764;7.184;2023-02-28T10:41:50;2.77;;;2.47;;
8656;SDS011;4366;50.764;7.184;2023-02-28T10:46:56;2.33;;;2.23;;
8656;SDS011;4366;50.764;7.184;2023-02-28T10:52:00;2.33;;;2.23;;
8656;SDS011;4366;50.764;7.184;2023-02-28T10:57:22;2.47;;;2.20;;
8656;SDS011;4366;50.764;7.184;2023-02-28T11:02:31;2.43;;;2.30;;
8656;SDS011;4366;50.764;7.184;2023-02-28T11:07:37;2.37;;;2.27;;
8656;SDS011;4366;50.764;7.184;2023-02-28T11:12:54;2.57;;;2.37;;
8656;SDS011;4366;50.764;7.184;2023-02-28T11:18:59;2.77;;;2.53;;
8656;SDS011;4366;50.764;7.184;2023-02-28T11:23:31;2.77;;;2.67;;
8656;SDS011;4366;50.764;7.184;2023-02-28T11:28:39;2.40;;;2.30;;
8656;SDS011;4366;50.764;7.184;2023-02-28T11:33:42;2.50;;;2.40;;
8656;SDS011;4366;50.764;7.184;2023-02-28T11:38:46;2.70;;;2.50;;
8656;SDS011;4366;50.764;7.184;2023-02-28T11:54:53;3.33;;;2.63;;
8656;SDS011;4366;50.764;7.184;2023-02-28T12:00:06;2.20;;;2.10;;
8656;SDS011;4366;50.764;7.184;2023-02-28T12:05:31;2.60;;;2.40;;
8656;SDS011;4366;50.764;7.184;2023-02-28T12:10:52;2.53;;;2.17;;
8656;SDS011;4366;50.764;7.184;2023-02-28T12:31:19;2.57;;;2.47;;
8656;SDS011;4366;50.764;7.184;2023-02-28T12:36:23;2.23;;;2.13;;
8656;SDS011;4366;50.764;7.184;2023-02-28T12:46:41;2.40;;;2.30;;
8656;SDS011;4366;50.764;7.184;2023-02-28T12:51:44;2.30;;;2.20;;
8656;SDS011;4366;50.764;7.184;2023-02-28T13:13:15;2.90;;;2.70;;
8656;SDS011;4366;50.764;7.184;2023-02-28T13:18:52;2.57;;;2.43;;
8656;SDS011;4366;50.764;7.184;2023-02-28T13:34:15;3.30;;;3.00;;
8656;SDS011;4366;50.764;7.184;2023-02-28T13:55:28;2.83;;;2.67;;
8656;SDS011;4366;50.764;7.184;2023-02-28T14:11:52;2.93;;;2.73;;
8656;SDS011;4366;50.764;7.184;2023-02-28T14:16:47;3.07;;;2.77;;
8656;SDS011;4366;50.764;7.184;2023-02-28T14:22:02;3.10;;;2.80;;
8656;SDS011;4366;50.764;7.184;2023-02-28T14:38:19;3.13;;;2.93;;
8656;SDS011;4366;50.764;7.184;2023-02-28T14:43:23;3.50;;;3.00;;
8656;SDS011;4366;50.764;7.184;2023-02-28T14:48:26;3.10;;;2.90;;
8656;SDS011;4366;50.764;7.184;2023-02-28T14:53:29;3.10;;;2.90;;
8656;SDS011;4366;50.764;7.184;2023-02-28T14:58:36;3.30;;;3.10;;
8656;SDS011;4366;50.764;7.184;2023-02-28T15:03:38;4.70;;;2.87;;
8656;SDS011;4366;50.764;7.184;2023-02-28T15:08:41;3.17;;;2.97;;
8656;SDS011;4366;50.764;7.184;2023-02-28T15:13:43;3.10;;;2.90;;
8656;SDS011;4366;50.764;7.184;2023-02-28T15:18:50;3.17;;;2.90;;
8656;SDS011;4366;50.764;7.184;2023-02-28T15:23:55;3.20;;;2.90;;
8656;SDS011;4366;50.764;7.184;2023-02-28T15:29:01;2.90;;;2.70;;
8656;SDS011;4366;50.764;7.184;2023-02-28T15:34:06;3.20;;;3.00;;
8656;SDS011;4366;50.764;7.184;2023-02-28T15:39:22;3.13;;;2.87;;
8656;SDS011;4366;50.764;7.184;2023-02-28T15:44:30;3.10;;;2.90;;
8656;SDS011;4366;50.764;7.184;2023-02-28T15:49:45;3.50;;;3.07;;
8656;SDS011;4366;50.764;7.184;2023-02-28T15:54:49;3.20;;;3.00;;
8656;SDS011;4366;50.764;7.184;2023-02-28T15:59:55;4.10;;;2.93;;
8656;SDS011;4366;50.764;7.184;2023-02-28T16:04:59;3.17;;;2.97;;
8656;SDS011;4366;50.764;7.184;2023-02-28T16:10:20;3.30;;;3.07;;
8656;SDS011;4366;50.764;7.184;2023-02-28T16:15:24;3.43;;;3.10;;
8656;SDS011;4366;50.764;7.184;2023-02-28T16:20:28;3.10;;;2.80;;
8656;SDS011;4366;50.764;7.184;2023-02-28T16:25:35;3.13;;;2.83;;
8656;SDS011;4366;50.764;7.184;2023-02-28T16:30:38;2.83;;;2.63;;
8656;SDS011;4366;50.764;7.184;2023-02-28T16:35:40;3.03;;;2.80;;
8656;SDS011;4366;50.764;7.184;2023-02-28T16:40:42;3.83;;;3.53;;
8656;SDS011;4366;50.764;7.184;2023-02-28T16:45:43;3.10;;;2.90;;
8656;SDS011;4366;50.764;7.184;2023-02-28T16:50:45;3.63;;;3.33;;
8656;SDS011;4366;50.764;7.184;2023-02-28T16:55:47;3.47;;;3.17;;
8656;SDS011;4366;50.764;7.184;2023-02-28T17:00:49;3.43;;;3.13;;
8656;SDS011;4366;50.764;7.184;2023-02-28T17:05:50;3.40;;;3.20;;
8656;SDS011;4366;50.764;7.184;2023-02-28T17:10:52;3.70;;;3.40;;
8656;SDS011;4366;50.764;7.184;2023-02-28T17:15:55;3.77;;;3.30;;
8656;SDS011;4366;50.764;7.184;2023-02-28T17:20:57;3.60;;;3.30;;
8656;SDS011;4366;50.764;7.184;2023-02-28T17:25:59;6.80;;;3.73;;
8656;SDS011;4366;50.764;7.184;2023-02-28T17:31:01;3.73;;;3.53;;
8656;SDS011;4366;50.764;7.184;2023-02-28T17:36:03;4.00;;;3.60;;
8656;SDS011;4366;50.764;7.184;2023-02-28T17:41:07;4.30;;;3.90;;
8656;SDS011;4366;50.764;7.184;2023-02-28T17:46:16;3.93;;;3.63;;
8656;SDS011;4366;50.764;7.184;2023-02-28T17:51:23;4.30;;;3.90;;
8656;SDS011;4366;50.764;7.184;2023-02-28T17:56:25;4.67;;;3.77;;
8656;SDS011;4366;50.764;7.184;2023-02-28T18:01:27;3.80;;;3.50;;
8656;SDS011;4366;50.764;7.184;2023-02-28T18:06:36;4.00;;;3.60;;
8656;SDS011;4366;50.764;7.184;2023-02-28T18:11:49;4.13;;;3.73;;
8656;SDS011;4366;50.764;7.184;2023-02-28T18:16:52;3.93;;;3.53;;
8656;SDS011;4366;50.764;7.184;2023-02-28T18:21:54;5.87;;;5.07;;
8656;SDS011;4366;50.764;7.184;2023-02-28T18:26:56;5.30;;;4.90;;
8656;SDS011;4366;50.764;7.184;2023-02-28T18:31:58;7.87;;;7.27;;
8656;SDS011;4366;50.764;7.184;2023-02-28T18:37:02;7.17;;;6.27;;
8656;SDS011;4366;50.764;7.184;2023-02-28T18:42:05;7.10;;;6.40;;
8656;SDS011;4366;50.764;7.184;2023-02-28T18:47:07;11.33;;;10.13;;
8656;SDS011;4366;50.764;7.184;2023-02-28T18:52:08;5.80;;;5.30;;
8656;SDS011;4366;50.764;7.184;2023-02-28T18:57:10;8.70;;;7.30;;
8656;SDS011;4366;50.764;7.184;2023-02-28T19:02:12;8.07;;;7.27;;
8656;SDS011;4366;50.764;7.184;2023-02-28T19:07:14;7.67;;;6.87;;
8656;SDS011;4366;50.764;7.184;2023-02-28T19:12:15;10.93;;;8.63;;
8656;SDS011;4366;50.764;7.184;2023-02-28T19:17:19;8.70;;;6.77;;
8656;SDS011;4366;50.764;7.184;2023-02-28T19:22:21;6.77;;;6.27;;
8656;SDS011;4366;50.764;7.184;2023-02-28T19:27:23;5.63;;;5.00;;
8656;SDS011;4366;50.764;7.184;2023-02-28T19:32:25;9.37;;;5.97;;
8656;SDS011;4366;50.764;7.184;2023-02-28T19:37:27;7.50;;;6.07;;
8656;SDS011;4366;50.764;7.184;2023-02-28T19:42:29;8.03;;;6.30;;
8656;SDS011;4366;50.764;7.184;2023-02-28T19:47:33;6.63;;;6.03;;
8656;SDS011;4366;50.764;7.184;2023-02-28T19:52:35;6.20;;;5.60;;
8656;SDS011;4366;50.764;7.184;2023-02-28T19:57:37;5.73;;;5.07;;
8656;SDS011;4366;50.764;7.184;2023-02-28T20:02:39;5.57;;;5.07;;
8656;SDS011;4366;50.764;7.184;2023-02-28T20:07:42;5.17;;;4.77;;
8656;SDS011;4366;50.764;7.184;2023-02-28T20:12:44;6.40;;;5.87;;
8656;SDS011;4366;50.764;7.184;2023-02-28T20:17:45;6.63;;;5.33;;
8656;SDS011;4366;50.764;7.184;2023-02-28T20:22:47;5.77;;;5.17;;
8656;SDS011;4366;50.764;7.184;2023-02-28T20:27:49;5.53;;;5.03;;
8656;SDS011;4366;50.764;7.184;2023-02-28T20:32:51;5.30;;;4.83;;
8656;SDS011;4366;50.764;7.184;2023-02-28T20:37:53;6.63;;;6.07;;
8656;SDS011;4366;50.764;7.184;2023-02-28T20:42:54;7.13;;;6.20;;
8656;SDS011;4366;50.764;7.184;2023-02-28T20:47:56;8.43;;;4.97;;
8656;SDS011;4366;50.764;7.184;2023-02-28T20:52:58;5.30;;;4.90;;
8656;SDS011;4366;50.764;7.184;2023-02-28T20:57:59;6.17;;;5.57;;
8656;SDS011;4366;50.764;7.184;2023-02-28T21:03:01;6.07;;;5.50;;
8656;SDS011;4366;50.764;7.184;2023-02-28T21:08:03;6.27;;;5.60;;
8656;SDS011;4366;50.764;7.184;2023-02-28T21:13:05;5.57;;;5.07;;
8656;SDS011;4366;50.764;7.184;2023-02-28T21:18:08;6.80;;;5.90;;
8656;SDS011;4366;50.764;7.184;2023-02-28T21:23:09;8.27;;;6.90;;
8656;SDS011;4366;50.764;7.184;2023-02-28T21:28:11;13.73;;;7.40;;
8656;SDS011;4366;50.764;7.184;2023-02-28T21:33:13;8.83;;;7.00;;
8656;SDS011;4366;50.764;7.184;2023-02-28T21:38:15;9.33;;;6.83;;
8656;SDS011;4366;50.764;7.184;2023-02-28T21:43:17;7.80;;;6.53;;
8656;SDS011;4366;50.764;7.184;2023-02-28T21:48:19;8.70;;;7.80;;
8656;SDS011;4366;50.764;7.184;2023-02-28T21:53:20;21.20;;;11.07;;
8656;SDS011;4366;50.764;7.184;2023-02-28T21:58:22;22.53;;;12.23;;
8656;SDS011;4366;50.764;7.184;2023-02-28T22:03:24;15.70;;;9.90;;
8656;SDS011;4366;50.764;7.184;2023-02-28T22:08:26;10.93;;;8.73;;
8656;SDS011;4366;50.764;7.184;2023-02-28T22:13:27;10.37;;;9.27;;
8656;SDS011;4366;50.764;7.184;2023-02-28T22:18:29;10.37;;;8.47;;
8656;SDS011;4366;50.764;7.184;2023-02-28T22:23:31;13.37;;;9.47;;
8656;SDS011;4366;50.764;7.184;2023-02-28T22:28:33;11.77;;;7.80;;
8656;SDS011;4366;50.764;7.184;2023-02-28T22:33:35;12.43;;;8.83;;
8656;SDS011;4366;50.764;7.184;2023-02-28T22:38:36;11.30;;;8.83;;
8656;SDS011;4366;50.764;7.184;2023-02-28T22:43:41;10.17;;;8.67;;
8656;SDS011;4366;50.764;7.184;2023-02-28T22:48:43;10.13;;;8.33;;
8656;SDS011;4366;50.764;7.184;2023-02-28T22:53:45;9.80;;;8.53;;
8656;SDS011;4366;50.764;7.184;2023-02-28T22:58:52;8.50;;;7.03;;
8656;SDS011;4366;50.764;7.184;2023-02-28T23:03:56;8.40;;;7.00;;
8656;SDS011;4366;50.764;7.184;2023-02-28T23:08:59;8.10;;;7.30;;
8656;SDS011;4366;50.764;7.184;2023-02-28T23:14:03;8.37;;;7.57;;
8656;SDS011;4366;50.764;7.184;2023-02-28T23:19:06;8.13;;;7.33;;
8656;SDS011;4366;50.764;7.184;2023-02-28T23:24:09;9.17;;;8.13;;
8656;SDS011;4366;50.764;7.184;2023-02-28T23:29:15;9.73;;;8.20;;
8656;SDS011;4366;50.764;7.184;2023-02-28T23:34:19;8.63;;;7.00;;
8656;SDS011;4366;50.764;7.184;2023-02-28T23:39:29;10.57;;;7.87;;
8656;SDS011;4366;50.764;7.184;2023-02-28T23:44:31;8.30;;;7.43;;
8656;SDS011;4366;50.764;7.184;2023-02-28T23:49:33;9.07;;;7.83;;
8656;SDS011;4366;50.764;7.184;2023-02-28T23:54:35;9.93;;;7.67;;
8656;SDS011;4366;50.764;7.184;2023-02-28T23:59:37;9.40;;;7.90;;
